aviador You're here:

KSBP Decoded Metar

SAN LUIS OBISPO in CA, USA
Report Time2018-06-24 21:56:00
UTC Time2018-06-24 22:42:16
Flight Rules mvfr MVFR
Wind270° at 06 kt
W.Decomp.*RWY 25: 6.0 kt HW 0.5 kt RCW
RWY 29: 4.9 kt HW 3.4 kt LCW
W.Rank270° ranks 15
Current wind is above 270° avg. (4.8)
Visibility9999 m
Phenomena:N/A
Clouds:Overcast 021 Hf
Expected CloudBase > 2,800 ft AGL from Temp-Dew spread
Ceiling2,100 ft
Temp21°C (ISA +6)
Dew Point14°C (64% RH)
AAT20.1°C
QNH1014 hPa
Density Alt1,119 ft
Elevation194 ft
Report Wrong Elevation
Raw Report
KSBP 242156Z 27006KT 10SM OVC021 21/14 A2993 RMK AO2 SLP135
T02060144=

Extra information for KSBP:More info

Metar Taf Metar & Taf Last 4 Metars F.Rules Stats Wind Profile Meteogram Temp Stats Airport Information Weather charts Add Link Nearby VenuesMetar ALERT Operation Metar Decoded Social comments

AIRNAV info for KSBP